createdAt,value
2023-01-15T00:00:21.076Z,981.92
2023-01-15T00:00:52.890Z,981.81
2023-01-15T00:01:24.980Z,981.81
2023-01-15T00:01:56.986Z,981.71
2023-01-15T00:02:28.785Z,981.71
2023-01-15T00:03:00.855Z,981.81
2023-01-15T00:03:32.880Z,981.81
2023-01-15T00:04:04.808Z,981.92
2023-01-15T00:04:36.683Z,981.71
2023-01-15T00:05:08.725Z,981.71
2023-01-15T00:05:40.746Z,981.71
2023-01-15T00:06:12.738Z,981.71
2023-01-15T00:06:44.550Z,981.81
2023-01-15T00:07:16.688Z,981.81
2023-01-15T00:07:48.730Z,981.92
2023-01-15T00:08:20.726Z,981.92
2023-01-15T00:08:52.503Z,981.71
2023-01-15T00:09:24.513Z,981.71
2023-01-15T00:09:56.507Z,981.81
2023-01-15T00:10:28.577Z,981.81
2023-01-15T00:11:00.400Z,981.71
2023-01-15T00:11:32.453Z,981.71
2023-01-15T00:12:04.501Z,982.02
2023-01-15T00:12:36.534Z,981.92
2023-01-15T00:13:08.327Z,981.92
2023-01-15T00:13:40.358Z,981.92
2023-01-15T00:14:12.392Z,981.92
2023-01-15T00:14:44.422Z,981.61
2023-01-15T00:15:16.401Z,981.61
2023-01-15T00:15:48.353Z,981.61
2023-01-15T00:16:20.465Z,981.61
2023-01-15T00:16:52.130Z,981.81
2023-01-15T00:17:24.170Z,981.81
2023-01-15T00:17:56.196Z,981.61
2023-01-15T00:18:28.134Z,981.61
2023-01-15T00:19:00.244Z,981.61
2023-01-15T00:19:32.033Z,981.61
2023-01-15T00:20:04.202Z,981.61
2023-01-15T00:20:36.161Z,981.71
2023-01-15T00:21:08.004Z,981.71
2023-01-15T00:21:40.026Z,981.51
2023-01-15T00:22:12.060Z,981.51
2023-01-15T00:22:44.083Z,981.71
2023-01-15T00:23:15.923Z,981.71
2023-01-15T00:23:47.936Z,981.51
2023-01-15T00:24:20.017Z,981.51
2023-01-15T00:24:52.031Z,981.71
2023-01-15T00:25:23.815Z,981.71
2023-01-15T00:25:55.852Z,981.71
2023-01-15T00:26:27.872Z,981.71
2023-01-15T00:26:59.931Z,981.61
2023-01-15T00:27:31.736Z,981.61
2023-01-15T00:28:03.762Z,981.71
2023-01-15T00:28:35.899Z,981.81
2023-01-15T00:29:08.726Z,981.81
2023-01-15T00:29:39.666Z,981.71
2023-01-15T00:30:12.842Z,981.71
2023-01-15T00:30:43.691Z,981.71
2023-01-15T00:31:16.859Z,981.71
2023-01-15T00:31:47.602Z,981.81
2023-01-15T00:32:20.485Z,981.81
2023-01-15T00:32:51.568Z,981.71
2023-01-15T00:33:24.542Z,981.71
2023-01-15T00:33:55.500Z,981.92
2023-01-15T00:34:28.409Z,981.92
2023-01-15T00:34:59.516Z,981.71
2023-01-15T00:35:32.273Z,981.71
2023-01-15T00:36:03.391Z,981.92
2023-01-15T00:36:36.364Z,981.71
2023-01-15T00:37:07.418Z,981.71
2023-01-15T00:37:40.140Z,981.71
2023-01-15T00:38:11.327Z,981.71
2023-01-15T00:38:44.194Z,981.81
2023-01-15T00:39:15.353Z,981.81
2023-01-15T00:39:48.071Z,981.81
2023-01-15T00:40:19.259Z,981.81
2023-01-15T00:40:52.184Z,981.81
2023-01-15T00:41:23.282Z,981.81
2023-01-15T00:41:56.105Z,981.92
2023-01-15T00:42:27.147Z,981.92
2023-01-15T00:43:00.097Z,981.71
2023-01-15T00:43:31.204Z,981.71
2023-01-15T00:44:03.972Z,981.71
2023-01-15T00:44:35.068Z,981.81
2023-01-15T00:45:08.363Z,981.81
2023-01-15T00:45:39.071Z,981.81
2023-01-15T00:46:11.982Z,981.81
2023-01-15T00:46:43.077Z,981.81
2023-01-15T00:47:15.921Z,981.81
2023-01-15T00:47:47.080Z,981.92
2023-01-15T00:48:19.774Z,981.92
2023-01-15T00:48:50.899Z,981.92
2023-01-15T00:49:23.810Z,981.92
2023-01-15T00:49:54.940Z,981.92
2023-01-15T00:50:27.678Z,981.92
2023-01-15T00:50:58.810Z,981.81
2023-01-15T00:51:31.766Z,981.81
2023-01-15T00:52:02.905Z,982.02
2023-01-15T00:52:35.628Z,981.92
2023-01-15T00:53:06.817Z,981.92
2023-01-15T00:53:39.664Z,981.92
2023-01-15T00:54:10.771Z,981.92
2023-01-15T00:54:43.572Z,981.92
2023-01-15T00:55:14.670Z,981.92
2023-01-15T00:55:47.598Z,981.92
2023-01-15T00:56:18.535Z,981.92
2023-01-15T00:56:51.521Z,982.02
2023-01-15T00:57:22.548Z,982.02
2023-01-15T00:57:55.511Z,982.02
2023-01-15T00:58:26.492Z,982.02
2023-01-15T00:58:59.449Z,982.02
2023-01-15T00:59:30.454Z,982.02
2023-01-15T01:00:03.647Z,982.02
2023-01-15T01:00:34.414Z,982.02
2023-01-15T01:01:07.323Z,982.02
2023-01-15T01:01:38.585Z,981.92
2023-01-15T01:02:11.425Z,981.92
2023-01-15T01:02:42.357Z,981.81
2023-01-15T01:03:15.283Z,981.81
2023-01-15T01:03:46.361Z,981.92
2023-01-15T01:04:19.257Z,981.92
2023-01-15T01:04:50.208Z,982.02
2023-01-15T01:05:23.130Z,982.02
2023-01-15T01:05:54.303Z,982.12
2023-01-15T01:06:27.087Z,982.12
2023-01-15T01:06:58.094Z,982.22
2023-01-15T01:07:31.065Z,982.22
2023-01-15T01:08:02.195Z,982.12
2023-01-15T01:08:35.348Z,982.02
2023-01-15T01:09:06.036Z,982.02
2023-01-15T01:09:38.938Z,981.92
2023-01-15T01:10:10.039Z,981.92
2023-01-15T01:10:42.760Z,982.22
2023-01-15T01:11:13.897Z,982.22
2023-01-15T01:11:47.266Z,982.12
2023-01-15T01:12:18.005Z,982.12
2023-01-15T01:12:50.714Z,982.12
2023-01-15T01:13:22.267Z,982.12
2023-01-15T01:13:54.883Z,982.12
2023-01-15T01:14:25.995Z,982.12
2023-01-15T01:14:58.614Z,982.12
2023-01-15T01:15:29.902Z,982.12
2023-01-15T01:16:02.827Z,982.12
2023-01-15T01:16:33.856Z,982.12
2023-01-15T01:17:06.573Z,982.12
2023-01-15T01:17:37.670Z,982.22
2023-01-15T01:18:10.621Z,982.22
2023-01-15T01:18:41.741Z,982.12
2023-01-15T01:19:14.464Z,982.12
2023-01-15T01:19:46.144Z,982.12
2023-01-15T01:20:18.543Z,982.12
2023-01-15T01:20:49.655Z,982.22
2023-01-15T01:21:22.392Z,982.22
2023-01-15T01:21:53.483Z,982.32
2023-01-15T01:22:26.541Z,982.32
2023-01-15T01:22:57.647Z,982.32
2023-01-15T01:23:30.373Z,982.32
2023-01-15T01:24:01.448Z,982.42
2023-01-15T01:24:34.387Z,982.42
2023-01-15T01:25:05.520Z,982.22
2023-01-15T01:25:38.135Z,982.22
2023-01-15T01:26:09.337Z,982.22
2023-01-15T01:26:42.256Z,982.42
2023-01-15T01:27:13.347Z,982.42
2023-01-15T01:27:46.140Z,982.32
2023-01-15T01:28:17.306Z,982.32
2023-01-15T01:28:50.353Z,982.53
2023-01-15T01:29:21.329Z,982.53
2023-01-15T01:29:54.008Z,982.32
2023-01-15T01:30:25.335Z,982.32
2023-01-15T01:30:58.123Z,982.53
2023-01-15T01:31:29.071Z,982.53
2023-01-15T01:32:01.963Z,982.42
2023-01-15T01:32:34.149Z,982.42
2023-01-15T01:33:06.040Z,982.42
2023-01-15T01:33:36.944Z,982.42
2023-01-15T01:34:09.842Z,982.42
2023-01-15T01:34:41.002Z,982.42
2023-01-15T01:35:13.873Z,982.42
2023-01-15T01:35:44.898Z,982.42
2023-01-15T01:36:18.178Z,982.42
2023-01-15T01:36:48.891Z,982.42
2023-01-15T01:37:21.814Z,982.42
2023-01-15T01:37:52.779Z,982.63
2023-01-15T01:38:25.728Z,982.63
2023-01-15T01:38:56.787Z,982.53
2023-01-15T01:39:29.783Z,982.53
2023-01-15T01:40:00.769Z,982.53
2023-01-15T01:40:33.588Z,982.53
2023-01-15T01:41:04.697Z,982.42
2023-01-15T01:41:37.685Z,982.63
2023-01-15T01:42:08.580Z,982.63
2023-01-15T01:42:44.132Z,982.63
2023-01-15T01:43:12.653Z,982.63
2023-01-15T01:43:45.693Z,982.42
2023-01-15T01:44:16.538Z,982.42
2023-01-15T01:44:49.454Z,982.42
2023-01-15T01:45:20.746Z,982.42
2023-01-15T01:45:53.598Z,982.53
2023-01-15T01:46:24.451Z,982.53
2023-01-15T01:46:57.338Z,982.63
2023-01-15T01:47:28.425Z,982.63
2023-01-15T01:48:01.426Z,982.53
2023-01-15T01:48:32.342Z,982.53
2023-01-15T01:49:05.406Z,982.63
2023-01-15T01:49:36.389Z,982.53
2023-01-15T01:50:09.336Z,982.53
2023-01-15T01:50:40.344Z,982.53
2023-01-15T01:51:13.145Z,982.53
2023-01-15T01:51:44.357Z,982.53
2023-01-15T01:52:17.111Z,982.53
2023-01-15T01:52:49.583Z,982.53
2023-01-15T01:53:21.307Z,982.53
2023-01-15T01:53:52.229Z,982.63
2023-01-15T01:54:24.913Z,982.63
2023-01-15T01:54:56.087Z,982.73
2023-01-15T01:55:29.077Z,982.73
2023-01-15T01:56:00.167Z,982.73
2023-01-15T01:56:33.046Z,982.73
2023-01-15T01:57:03.998Z,982.73
2023-01-15T01:57:37.061Z,982.73
2023-01-15T01:58:08.063Z,982.73
2023-01-15T01:58:40.821Z,982.83
2023-01-15T01:59:11.939Z,982.83
2023-01-15T01:59:45.021Z,982.73
2023-01-15T02:00:16.253Z,982.73
2023-01-15T02:00:48.855Z,982.73
2023-01-15T02:01:20.015Z,982.73
2023-01-15T02:01:52.850Z,982.73
2023-01-15T02:02:23.964Z,982.73
2023-01-15T02:02:56.678Z,982.83
2023-01-15T02:03:33.112Z,982.83
2023-01-15T02:04:00.693Z,982.73
2023-01-15T02:04:31.831Z,982.73
2023-01-15T02:05:04.590Z,982.83
2023-01-15T02:05:36.214Z,982.73
2023-01-15T02:06:08.633Z,982.73
2023-01-15T02:06:39.638Z,982.83
2023-01-15T02:07:12.392Z,982.83
2023-01-15T02:07:43.628Z,982.83
2023-01-15T02:08:16.639Z,982.83
2023-01-15T02:08:47.460Z,982.93
2023-01-15T02:09:20.369Z,982.93
2023-01-15T02:09:51.526Z,983.13
2023-01-15T02:10:24.419Z,983.13
2023-01-15T02:10:55.880Z,983.03
2023-01-15T02:11:28.310Z,983.03
2023-01-15T02:11:59.390Z,982.93
2023-01-15T02:12:32.391Z,982.93
2023-01-15T02:13:03.561Z,983.03
2023-01-15T02:13:36.527Z,983.03
2023-01-15T02:14:07.379Z,983.03
2023-01-15T02:14:40.251Z,983.03
2023-01-15T02:15:11.428Z,983.03
2023-01-15T02:15:44.249Z,983.03
2023-01-15T02:16:15.639Z,983.03
2023-01-15T02:16:47.996Z,983.34
2023-01-15T02:17:19.154Z,983.34
2023-01-15T02:17:52.095Z,983.34
2023-01-15T02:18:23.213Z,983.34
2023-01-15T02:18:55.925Z,983.34
2023-01-15T02:19:27.127Z,983.34
2023-01-15T02:19:59.947Z,983.34
2023-01-15T02:20:31.106Z,983.34
2023-01-15T02:21:03.789Z,983.34
2023-01-15T02:21:35.020Z,983.34
2023-01-15T02:22:07.914Z,983.34
2023-01-15T02:22:39.064Z,983.44
2023-01-15T02:23:11.708Z,983.44
2023-01-15T02:23:42.930Z,983.44
2023-01-15T02:24:15.848Z,983.44
2023-01-15T02:24:47.031Z,983.51
2023-01-15T02:25:19.683Z,983.51
2023-01-15T02:25:50.752Z,983.44
2023-01-15T02:26:23.847Z,983.44
2023-01-15T02:26:54.674Z,983.34
2023-01-15T02:27:27.473Z,983.34
2023-01-15T02:27:58.758Z,983.44
2023-01-15T02:28:31.713Z,983.44
2023-01-15T02:29:02.614Z,983.61
2023-01-15T02:29:35.830Z,983.61
2023-01-15T02:30:06.966Z,983.61
2023-01-15T02:30:39.447Z,983.61
2023-01-15T02:31:10.574Z,983.61
2023-01-15T02:31:43.683Z,983.61
2023-01-15T02:32:14.671Z,983.61
2023-01-15T02:32:47.340Z,983.61
2023-01-15T02:33:18.489Z,983.61
2023-01-15T02:33:51.444Z,983.71
2023-01-15T02:34:22.392Z,983.71
2023-01-15T02:34:55.320Z,983.71
2023-01-15T02:35:26.394Z,983.71
2023-01-15T02:35:59.316Z,983.61
2023-01-15T02:36:30.288Z,983.61
2023-01-15T02:37:03.424Z,983.81
2023-01-15T02:37:34.469Z,983.71
2023-01-15T02:38:07.223Z,983.71
2023-01-15T02:38:38.183Z,983.81
2023-01-15T02:39:11.114Z,983.81
2023-01-15T02:39:42.279Z,983.71
2023-01-15T02:40:15.205Z,983.71
2023-01-15T02:40:46.099Z,983.81
2023-01-15T02:41:19.037Z,983.81
2023-01-15T02:41:55.202Z,983.71
2023-01-15T02:42:24.658Z,983.71
2023-01-15T02:42:54.066Z,983.81
2023-01-15T02:43:27.077Z,983.81
2023-01-15T02:43:58.114Z,983.81
2023-01-15T02:44:31.047Z,983.81
2023-01-15T02:45:02.242Z,983.81
2023-01-15T02:45:36.363Z,983.81
2023-01-15T02:46:06.083Z,983.81
2023-01-15T02:46:38.727Z,984.02
2023-01-15T02:47:09.910Z,984.02
2023-01-15T02:47:42.782Z,983.91
2023-01-15T02:48:13.888Z,983.91
2023-01-15T02:48:47.220Z,983.91
2023-01-15T02:49:17.797Z,983.91
2023-01-15T02:49:50.662Z,983.81
2023-01-15T02:50:21.795Z,983.81
2023-01-15T02:50:54.568Z,983.81
2023-01-15T02:51:25.711Z,983.81
2023-01-15T02:51:59.264Z,984.02
2023-01-15T02:52:29.783Z,984.02
2023-01-15T02:53:02.500Z,984.02
2023-01-15T02:53:33.647Z,983.81
2023-01-15T02:54:06.520Z,983.81
2023-01-15T02:54:37.688Z,983.81
2023-01-15T02:55:10.438Z,983.81
2023-01-15T02:55:41.599Z,983.81
2023-01-15T02:56:14.750Z,983.81
2023-01-15T02:56:45.615Z,983.91
2023-01-15T02:57:18.383Z,983.91
2023-01-15T02:57:49.448Z,983.81
2023-01-15T02:58:22.387Z,983.81
2023-01-15T02:58:53.520Z,984.02
2023-01-15T02:59:26.257Z,984.02
2023-01-15T02:59:57.361Z,983.81
2023-01-15T03:00:30.491Z,983.81
2023-01-15T03:01:01.555Z,984.12
2023-01-15T03:01:34.438Z,984.12
2023-01-15T03:02:05.538Z,984.02
2023-01-15T03:02:38.222Z,984.12
2023-01-15T03:03:09.328Z,984.12
2023-01-15T03:03:42.059Z,984.02
2023-01-15T03:04:13.243Z,984.02
2023-01-15T03:04:46.839Z,984.02
2023-01-15T03:05:17.264Z,984.02
2023-01-15T03:05:49.937Z,984.02
2023-01-15T03:06:21.156Z,984.02
2023-01-15T03:06:54.212Z,984.02
2023-01-15T03:07:24.944Z,984.02
2023-01-15T03:07:57.902Z,984.02
2023-01-15T03:08:29.054Z,984.02
2023-01-15T03:09:01.987Z,984.12
2023-01-15T03:09:33.422Z,984.12
2023-01-15T03:10:05.840Z,984.12
2023-01-15T03:10:36.955Z,984.22
2023-01-15T03:11:09.887Z,984.22
2023-01-15T03:11:40.801Z,984.22
2023-01-15T03:12:13.743Z,984.22
2023-01-15T03:12:44.838Z,984.32
2023-01-15T03:13:17.846Z,984.32
2023-01-15T03:13:48.693Z,984.22
2023-01-15T03:14:21.662Z,984.22
2023-01-15T03:14:52.771Z,984.32
2023-01-15T03:15:25.931Z,984.32
2023-01-15T03:15:56.616Z,984.32
2023-01-15T03:16:29.543Z,984.32
2023-01-15T03:17:00.682Z,984.32
2023-01-15T03:17:33.632Z,984.32
2023-01-15T03:18:04.523Z,984.52
2023-01-15T03:18:37.462Z,984.22
2023-01-15T03:19:08.594Z,984.22
2023-01-15T03:19:41.500Z,984.22
2023-01-15T03:20:12.483Z,984.22
2023-01-15T03:20:45.364Z,984.32
2023-01-15T03:21:16.515Z,984.32
2023-01-15T03:21:49.475Z,984.42
2023-01-15T03:22:20.390Z,984.42
2023-01-15T03:22:53.349Z,984.42
2023-01-15T03:23:24.421Z,984.42
2023-01-15T03:23:57.426Z,984.42
2023-01-15T03:24:28.281Z,984.42
2023-01-15T03:25:01.516Z,984.42
2023-01-15T03:25:32.359Z,984.42
2023-01-15T03:26:05.308Z,984.32
2023-01-15T03:26:36.241Z,984.62
2023-01-15T03:27:09.216Z,984.62
2023-01-15T03:27:40.273Z,984.83
2023-01-15T03:28:13.210Z,984.83
2023-01-15T03:28:44.055Z,984.62
2023-01-15T03:29:17.065Z,984.62
2023-01-15T03:29:48.126Z,984.52
2023-01-15T03:30:21.098Z,984.52
2023-01-15T03:30:52.134Z,984.52
2023-01-15T03:31:24.929Z,984.52
2023-01-15T03:31:56.107Z,984.32
2023-01-15T03:32:28.995Z,984.32
2023-01-15T03:32:59.948Z,984.52
2023-01-15T03:33:32.836Z,984.52
2023-01-15T03:34:04.012Z,984.52
2023-01-15T03:34:36.734Z,984.52
2023-01-15T03:35:07.859Z,984.52
2023-01-15T03:35:40.851Z,984.42
2023-01-15T03:36:11.921Z,984.42
2023-01-15T03:36:44.695Z,984.62
2023-01-15T03:37:15.747Z,984.62
2023-01-15T03:37:48.732Z,984.73
2023-01-15T03:38:19.795Z,984.73
2023-01-15T03:38:52.671Z,984.73
2023-01-15T03:39:23.704Z,984.73
2023-01-15T03:39:56.575Z,984.42
2023-01-15T03:40:27.845Z,984.42
2023-01-15T03:41:00.494Z,984.22
2023-01-15T03:41:31.636Z,984.22
2023-01-15T03:42:04.571Z,984.32
2023-01-15T03:42:35.705Z,984.32
2023-01-15T03:43:08.413Z,984.32
2023-01-15T03:43:39.635Z,984.32
2023-01-15T03:44:12.505Z,984.32
2023-01-15T03:44:43.564Z,984.42
2023-01-15T03:45:16.528Z,984.42
2023-01-15T03:45:47.458Z,984.52
2023-01-15T03:46:20.549Z,984.52
2023-01-15T03:46:51.368Z,984.42
2023-01-15T03:47:24.273Z,984.42
2023-01-15T03:47:55.390Z,984.32
2023-01-15T03:48:28.424Z,984.32
2023-01-15T03:48:59.242Z,984.32
2023-01-15T03:49:32.155Z,984.32
2023-01-15T03:50:03.286Z,984.12
2023-01-15T03:50:37.202Z,984.12
2023-01-15T03:51:07.108Z,984.12
2023-01-15T03:51:40.242Z,984.22
2023-01-15T03:52:11.243Z,984.22
2023-01-15T03:52:44.142Z,984.02
2023-01-15T03:53:15.016Z,984.02
2023-01-15T03:53:48.049Z,984.12
2023-01-15T03:54:19.119Z,984.12
2023-01-15T03:54:52.122Z,984.02
2023-01-15T03:55:24.162Z,984.02
2023-01-15T03:55:55.876Z,984.02
2023-01-15T03:56:27.019Z,984.02
2023-01-15T03:56:59.976Z,983.91
2023-01-15T03:57:30.943Z,983.91
2023-01-15T03:58:03.832Z,983.91
2023-01-15T03:58:34.959Z,984.02
2023-01-15T03:59:07.914Z,984.02
2023-01-15T03:59:38.845Z,983.71
2023-01-15T04:00:12.146Z,983.71
2023-01-15T04:00:42.875Z,983.61
2023-01-15T04:01:15.943Z,983.61
2023-01-15T04:01:46.880Z,983.71
2023-01-15T04:02:19.647Z,983.71
2023-01-15T04:02:50.781Z,983.91
2023-01-15T04:03:23.738Z,983.91
2023-01-15T04:03:54.671Z,983.71
2023-01-15T04:04:27.600Z,983.71
2023-01-15T04:04:58.744Z,983.71
2023-01-15T04:05:31.742Z,983.71
2023-01-15T04:06:02.545Z,983.81
2023-01-15T04:06:35.787Z,983.71
2023-01-15T04:07:06.617Z,983.71
2023-01-15T04:07:39.568Z,983.61
2023-01-15T04:08:10.481Z,983.61
2023-01-15T04:08:43.470Z,983.51
2023-01-15T04:09:14.474Z,983.51
2023-01-15T04:09:47.488Z,983.51
2023-01-15T04:10:18.401Z,983.51
2023-01-15T04:10:51.291Z,983.71
2023-01-15T04:11:22.457Z,983.71
2023-01-15T04:11:55.060Z,983.44
2023-01-15T04:12:26.307Z,983.44
2023-01-15T04:12:59.236Z,983.51
2023-01-15T04:13:31.547Z,983.51
2023-01-15T04:14:03.376Z,983.51
2023-01-15T04:14:34.200Z,983.61
2023-01-15T04:15:07.428Z,983.61
2023-01-15T04:15:38.381Z,983.61
2023-01-15T04:16:11.030Z,983.61
2023-01-15T04:16:42.126Z,983.51
2023-01-15T04:17:15.047Z,983.51
2023-01-15T04:17:46.175Z,983.61
2023-01-15T04:18:18.863Z,983.61
2023-01-15T04:18:50.021Z,983.51
2023-01-15T04:19:22.958Z,983.51
2023-01-15T04:19:54.022Z,983.44
2023-01-15T04:20:26.914Z,983.44
2023-01-15T04:20:57.963Z,983.51
2023-01-15T04:21:30.857Z,983.51
2023-01-15T04:22:02.053Z,983.61
2023-01-15T04:22:35.978Z,983.51
2023-01-15T04:23:05.874Z,983.51
2023-01-15T04:23:38.945Z,983.51
2023-01-15T04:24:09.967Z,983.51
2023-01-15T04:24:42.692Z,983.61
2023-01-15T04:25:13.747Z,983.61
2023-01-15T04:25:46.780Z,983.61
2023-01-15T04:26:17.606Z,983.61
2023-01-15T04:26:50.661Z,983.51
2023-01-15T04:27:21.677Z,983.51
2023-01-15T04:27:54.728Z,983.44
2023-01-15T04:28:25.601Z,983.44
2023-01-15T04:28:59.292Z,983.71
2023-01-15T04:29:29.615Z,983.71
2023-01-15T04:30:02.720Z,983.61
2023-01-15T04:30:33.693Z,983.51
2023-01-15T04:31:06.546Z,983.51
2023-01-15T04:31:37.543Z,983.61
2023-01-15T04:32:10.486Z,983.61
2023-01-15T04:32:41.395Z,983.71
2023-01-15T04:33:14.493Z,983.71
2023-01-15T04:33:46.256Z,983.44
2023-01-15T04:34:18.367Z,983.44
2023-01-15T04:34:49.242Z,983.51
2023-01-15T04:35:22.796Z,983.51
2023-01-15T04:35:53.370Z,983.51
2023-01-15T04:36:26.266Z,983.51
2023-01-15T04:36:57.248Z,983.61
2023-01-15T04:37:30.181Z,983.61
2023-01-15T04:38:01.332Z,983.51
2023-01-15T04:38:34.282Z,983.51
2023-01-15T04:39:05.155Z,983.61
2023-01-15T04:39:38.118Z,983.61
2023-01-15T04:40:09.219Z,983.61
2023-01-15T04:40:42.207Z,983.51
2023-01-15T04:41:13.037Z,983.51
2023-01-15T04:41:45.998Z,983.44
2023-01-15T04:42:17.077Z,983.44
2023-01-15T04:42:50.014Z,983.51
2023-01-15T04:43:20.962Z,983.51
2023-01-15T04:43:53.879Z,983.61
2023-01-15T04:44:25.004Z,983.61
2023-01-15T04:44:57.936Z,983.81
2023-01-15T04:45:29.024Z,983.81
2023-01-15T04:46:01.987Z,983.51
2023-01-15T04:46:32.963Z,983.51
2023-01-15T04:47:05.888Z,983.71
2023-01-15T04:47:36.825Z,983.71
2023-01-15T04:48:09.713Z,983.71
2023-01-15T04:48:40.849Z,983.71
2023-01-15T04:49:13.694Z,983.71
2023-01-15T04:49:44.655Z,983.71
2023-01-15T04:50:17.609Z,983.71
2023-01-15T04:50:48.694Z,983.61
2023-01-15T04:51:21.650Z,983.61
2023-01-15T04:51:52.654Z,983.61
2023-01-15T04:52:25.567Z,983.61
2023-01-15T04:52:56.670Z,983.44
2023-01-15T04:53:29.600Z,983.44
2023-01-15T04:54:00.542Z,983.44
2023-01-15T04:54:33.463Z,983.44
2023-01-15T04:55:04.630Z,983.44
2023-01-15T04:55:37.523Z,983.44
2023-01-15T04:56:08.511Z,983.44
2023-01-15T04:56:48.303Z,983.44
2023-01-15T04:57:12.492Z,983.44
2023-01-15T04:57:44.302Z,983.44
2023-01-15T04:58:16.388Z,983.44
2023-01-15T04:58:48.358Z,983.44
2023-01-15T04:59:20.382Z,983.44
2023-01-15T04:59:52.280Z,983.34
2023-01-15T05:00:24.462Z,983.34
2023-01-15T05:00:56.443Z,983.51
2023-01-15T05:01:28.520Z,983.51
2023-01-15T05:02:06.123Z,983.44
2023-01-15T05:02:32.229Z,983.44
2023-01-15T05:03:04.236Z,983.51
2023-01-15T05:03:36.294Z,983.34
2023-01-15T05:04:08.122Z,983.34
2023-01-15T05:04:40.132Z,983.34
2023-01-15T05:05:12.129Z,983.34
2023-01-15T05:05:44.102Z,983.34
2023-01-15T05:06:16.016Z,983.34
2023-01-15T05:06:47.992Z,983.24
2023-01-15T05:07:20.044Z,983.24
2023-01-15T05:07:52.100Z,983.34
2023-01-15T05:08:23.929Z,983.34
2023-01-15T05:08:55.915Z,983.34
2023-01-15T05:09:27.959Z,983.34
2023-01-15T05:09:59.963Z,983.51
2023-01-15T05:10:31.833Z,983.51
2023-01-15T05:11:03.864Z,983.34
2023-01-15T05:11:35.939Z,983.24
2023-01-15T05:12:07.930Z,983.24
2023-01-15T05:12:39.763Z,983.24
2023-01-15T05:13:11.784Z,983.24
2023-01-15T05:13:43.702Z,983.24
2023-01-15T05:14:15.797Z,983.24
2023-01-15T05:14:47.602Z,983.34
2023-01-15T05:15:19.812Z,983.34
2023-01-15T05:15:51.812Z,983.13
2023-01-15T05:16:23.738Z,983.13
2023-01-15T05:16:55.551Z,983.34
2023-01-15T05:17:27.587Z,983.34
2023-01-15T05:17:59.677Z,983.13
2023-01-15T05:18:31.607Z,983.13
2023-01-15T05:19:03.501Z,983.24
2023-01-15T05:19:36.043Z,983.24
2023-01-15T05:20:07.531Z,983.24
2023-01-15T05:20:39.571Z,983.13
2023-01-15T05:21:11.396Z,983.13
2023-01-15T05:21:43.435Z,983.24
2023-01-15T05:22:15.470Z,983.24
2023-01-15T05:22:47.505Z,983.44
2023-01-15T05:23:19.280Z,983.44
2023-01-15T05:23:51.343Z,983.24
2023-01-15T05:24:23.335Z,983.24
2023-01-15T05:24:55.367Z,983.24
2023-01-15T05:25:27.181Z,983.24
2023-01-15T05:25:59.255Z,983.34
2023-01-15T05:26:31.303Z,983.34
2023-01-15T05:27:03.076Z,983.44
2023-01-15T05:27:35.165Z,983.44
2023-01-15T05:28:07.174Z,983.44
2023-01-15T05:28:39.252Z,983.44
2023-01-15T05:29:11.227Z,983.44
2023-01-15T05:29:43.033Z,983.44
2023-01-15T05:30:15.294Z,983.44
2023-01-15T05:30:47.102Z,983.34
2023-01-15T05:31:19.024Z,983.34
2023-01-15T05:31:50.963Z,983.34
2023-01-15T05:32:22.995Z,983.34
2023-01-15T05:32:55.018Z,983.44
2023-01-15T05:33:26.819Z,983.44
2023-01-15T05:33:58.895Z,983.44
2023-01-15T05:34:30.869Z,983.44
2023-01-15T05:35:03.003Z,983.44
2023-01-15T05:35:34.791Z,983.13
2023-01-15T05:36:06.868Z,983.13
2023-01-15T05:36:38.856Z,983.34
2023-01-15T05:37:10.852Z,983.34
2023-01-15T05:37:42.720Z,983.34
2023-01-15T05:38:14.669Z,983.34
2023-01-15T05:38:46.711Z,983.51
2023-01-15T05:39:18.748Z,983.51
2023-01-15T05:39:50.578Z,983.34
2023-01-15T05:40:22.722Z,983.34
2023-01-15T05:40:54.577Z,983.34
2023-01-15T05:41:26.667Z,983.34
2023-01-15T05:41:58.563Z,983.24
2023-01-15T05:42:30.571Z,983.24
2023-01-15T05:43:02.544Z,983.34
2023-01-15T05:43:34.642Z,983.34
2023-01-15T05:44:06.485Z,983.34
2023-01-15T05:44:38.498Z,983.44
2023-01-15T05:45:10.699Z,983.44
2023-01-15T05:45:42.533Z,983.44
2023-01-15T05:46:14.333Z,983.44
2023-01-15T05:46:46.409Z,983.44
2023-01-15T05:47:18.418Z,983.44
2023-01-15T05:47:50.190Z,983.44
2023-01-15T05:48:22.297Z,983.44
2023-01-15T05:48:54.220Z,983.44
2023-01-15T05:49:26.349Z,983.44
2023-01-15T05:49:58.369Z,983.44
2023-01-15T05:50:30.125Z,983.44
2023-01-15T05:51:02.245Z,983.44
2023-01-15T05:51:35.584Z,983.51
2023-01-15T05:52:06.085Z,983.51
2023-01-15T05:52:39.012Z,983.51
2023-01-15T05:53:10.219Z,983.51
2023-01-15T05:53:43.064Z,983.71
2023-01-15T05:54:13.954Z,983.71
2023-01-15T05:54:47.005Z,983.71
2023-01-15T05:55:18.060Z,983.71
2023-01-15T05:55:50.990Z,983.81
2023-01-15T05:56:21.921Z,983.81
2023-01-15T05:56:54.819Z,983.91
2023-01-15T05:57:25.907Z,983.91
2023-01-15T05:57:58.926Z,983.71
2023-01-15T05:58:29.752Z,983.71
2023-01-15T05:59:02.762Z,983.71
2023-01-15T05:59:33.882Z,983.61
2023-01-15T06:00:07.354Z,983.61
2023-01-15T06:00:37.727Z,983.71
2023-01-15T06:01:10.729Z,983.71
2023-01-15T06:01:41.797Z,983.81
2023-01-15T06:02:14.709Z,983.81
2023-01-15T06:02:45.881Z,983.81
2023-01-15T06:03:18.576Z,983.81
2023-01-15T06:03:49.747Z,983.81
2023-01-15T06:04:22.661Z,983.81
2023-01-15T06:04:53.589Z,983.81
2023-01-15T06:05:26.479Z,983.81
2023-01-15T06:05:57.549Z,983.71
2023-01-15T06:06:30.646Z,983.71
2023-01-15T06:07:01.446Z,983.61
2023-01-15T06:07:34.543Z,983.61
2023-01-15T06:08:05.520Z,983.61
2023-01-15T06:08:38.724Z,983.71
2023-01-15T06:09:09.401Z,983.71
2023-01-15T06:09:42.291Z,983.61
2023-01-15T06:10:13.459Z,983.61
2023-01-15T06:10:46.856Z,983.61
2023-01-15T06:11:17.326Z,983.61
2023-01-15T06:11:50.233Z,983.61
2023-01-15T06:12:21.306Z,983.61
2023-01-15T06:12:54.274Z,983.61
2023-01-15T06:13:25.528Z,983.61
2023-01-15T06:13:58.214Z,983.61
2023-01-15T06:14:29.215Z,983.61
2023-01-15T06:15:02.470Z,983.44
2023-01-15T06:15:33.168Z,983.44
2023-01-15T06:16:06.132Z,983.61
2023-01-15T06:16:37.174Z,983.61
2023-01-15T06:17:10.802Z,983.61
2023-01-15T06:17:41.050Z,983.61
2023-01-15T06:18:13.997Z,983.61
2023-01-15T06:18:45.593Z,983.61
2023-01-15T06:19:18.058Z,983.61
2023-01-15T06:19:48.903Z,983.61
2023-01-15T06:20:21.831Z,983.61
2023-01-15T06:20:52.972Z,983.81
2023-01-15T06:21:25.735Z,983.81
2023-01-15T06:21:56.792Z,983.71
2023-01-15T06:22:29.802Z,983.71
2023-01-15T06:23:01.129Z,983.81
2023-01-15T06:23:49.555Z,983.81
2023-01-15T06:24:32.766Z,983.81
2023-01-15T06:25:05.793Z,983.81
2023-01-15T06:25:36.822Z,983.81
2023-01-15T06:26:09.658Z,983.81
2023-01-15T06:26:40.680Z,983.91
2023-01-15T06:27:13.629Z,983.91
2023-01-15T06:27:46.144Z,983.91
2023-01-15T06:28:17.455Z,983.91
2023-01-15T06:28:48.593Z,983.81
2023-01-15T06:29:21.461Z,983.81
2023-01-15T06:29:52.627Z,983.91
2023-01-15T06:30:25.520Z,983.91
2023-01-15T06:30:56.528Z,984.02
2023-01-15T06:31:29.529Z,984.02
2023-01-15T06:32:00.573Z,984.02
2023-01-15T06:32:33.279Z,984.02
2023-01-15T06:33:04.443Z,983.81
2023-01-15T06:33:37.337Z,983.91
2023-01-15T06:34:08.483Z,983.91
2023-01-15T06:34:41.203Z,983.71
2023-01-15T06:35:12.321Z,983.71
2023-01-15T06:35:45.326Z,983.61
2023-01-15T06:36:16.401Z,983.61
2023-01-15T06:36:49.122Z,983.71
2023-01-15T06:37:20.209Z,983.71
2023-01-15T06:37:53.146Z,983.71
2023-01-15T06:38:24.268Z,983.71
2023-01-15T06:38:57.103Z,983.91
2023-01-15T06:39:28.153Z,983.91